Walters, Minnesota
Current Conditions -  °F | °C
As of 12:15 PM on Friday 24 Oct 2014 (Local Time) from KAEL Reporting Station
Moderate Fog Moderate Fog  
Wind Chill: 55°   Ceiling: 200
Heat Index: 55°   Visibility: 0.25mi
Dew Point: 54°   Wind: 3mph
Humidity: 94%   Direction: 180°S
Pressure: 29.9"   Gusts: NA
Location:  43.7464°N, 93.7488°W
Report Text: KAEL 241715Z AUTO 18003KT 1/4SM FG OVC002 13/12 A2990 RMK AO2
Loading
Personal Weather Stations






























Interactive Weather Map
Tropical Storm Tracking
New forecast layout! Learn more

10-Day Weather Forecast

Advertisements
Track Severe Weather on mobile